sensor_id;sensor_type;location;lat;lon;timestamp;P1;durP1;ratioP1;P2;durP2;ratioP2
77055;SDS011;67471;44.918;8.614;2024-02-26T00:00:07;2.70;;;1.23;;
77055;SDS011;67471;44.918;8.614;2024-02-26T00:03:12;3.75;;;1.90;;
77055;SDS011;67471;44.918;8.614;2024-02-26T00:06:16;3.72;;;1.50;;
77055;SDS011;67471;44.918;8.614;2024-02-26T00:09:21;3.38;;;1.60;;
77055;SDS011;67471;44.918;8.614;2024-02-26T00:12:25;6.55;;;1.40;;
77055;SDS011;67471;44.918;8.614;2024-02-26T00:15:29;3.72;;;1.83;;
77055;SDS011;67471;44.918;8.614;2024-02-26T00:18:33;3.60;;;1.92;;
77055;SDS011;67471;44.918;8.614;2024-02-26T00:21:40;4.85;;;1.98;;
77055;SDS011;67471;44.918;8.614;2024-02-26T00:24:45;3.85;;;1.73;;
77055;SDS011;67471;44.918;8.614;2024-02-26T00:27:48;3.20;;;1.60;;
77055;SDS011;67471;44.918;8.614;2024-02-26T00:30:52;5.10;;;1.70;;
77055;SDS011;67471;44.918;8.614;2024-02-26T00:33:58;4.35;;;1.70;;
77055;SDS011;67471;44.918;8.614;2024-02-26T00:37:02;7.35;;;2.60;;
77055;SDS011;67471;44.918;8.614;2024-02-26T00:40:07;6.20;;;2.53;;
77055;SDS011;67471;44.918;8.614;2024-02-26T00:43:12;5.28;;;2.25;;
77055;SDS011;67471;44.918;8.614;2024-02-26T00:46:16;5.13;;;2.53;;
77055;SDS011;67471;44.918;8.614;2024-02-26T00:49:19;3.55;;;1.90;;
77055;SDS011;67471;44.918;8.614;2024-02-26T00:52:23;3.05;;;1.55;;
77055;SDS011;67471;44.918;8.614;2024-02-26T00:55:27;5.35;;;2.30;;
77055;SDS011;67471;44.918;8.614;2024-02-26T00:58:31;4.03;;;1.80;;
77055;SDS011;67471;44.918;8.614;2024-02-26T01:01:34;4.22;;;1.70;;
77055;SDS011;67471;44.918;8.614;2024-02-26T01:04:38;3.90;;;2.40;;
77055;SDS011;67471;44.918;8.614;2024-02-26T01:07:42;5.63;;;2.58;;
77055;SDS011;67471;44.918;8.614;2024-02-26T01:10:46;2.97;;;1.95;;
77055;SDS011;67471;44.918;8.614;2024-02-26T01:13:50;3.47;;;1.92;;
77055;SDS011;67471;44.918;8.614;2024-02-26T01:20:02;5.78;;;3.05;;
77055;SDS011;67471;44.918;8.614;2024-02-26T01:23:06;4.80;;;2.38;;
77055;SDS011;67471;44.918;8.614;2024-02-26T01:26:10;5.50;;;2.03;;
77055;SDS011;67471;44.918;8.614;2024-02-26T01:29:14;4.95;;;2.13;;
77055;SDS011;67471;44.918;8.614;2024-02-26T01:32:17;3.20;;;1.98;;
77055;SDS011;67471;44.918;8.614;2024-02-26T01:35:21;3.55;;;2.30;;
77055;SDS011;67471;44.918;8.614;2024-02-26T01:38:25;4.50;;;1.80;;
77055;SDS011;67471;44.918;8.614;2024-02-26T01:41:29;4.72;;;1.98;;
77055;SDS011;67471;44.918;8.614;2024-02-26T01:44:33;3.63;;;1.92;;
77055;SDS011;67471;44.918;8.614;2024-02-26T01:47:36;3.33;;;1.70;;
77055;SDS011;67471;44.918;8.614;2024-02-26T01:50:40;4.15;;;1.98;;
77055;SDS011;67471;44.918;8.614;2024-02-26T01:53:44;4.47;;;2.38;;
77055;SDS011;67471;44.918;8.614;2024-02-26T01:56:48;5.97;;;3.05;;
77055;SDS011;67471;44.918;8.614;2024-02-26T01:59:53;7.05;;;4.07;;
77055;SDS011;67471;44.918;8.614;2024-02-26T02:02:56;10.93;;;5.50;;
77055;SDS011;67471;44.918;8.614;2024-02-26T02:06:00;9.07;;;6.18;;
77055;SDS011;67471;44.918;8.614;2024-02-26T02:09:05;9.57;;;7.03;;
77055;SDS011;67471;44.918;8.614;2024-02-26T02:12:10;11.98;;;7.20;;
77055;SDS011;67471;44.918;8.614;2024-02-26T02:15:14;14.32;;;7.85;;
77055;SDS011;67471;44.918;8.614;2024-02-26T02:18:18;12.15;;;7.75;;
77055;SDS011;67471;44.918;8.614;2024-02-26T02:21:22;10.70;;;7.72;;
77055;SDS011;67471;44.918;8.614;2024-02-26T02:24:26;13.85;;;8.43;;
77055;SDS011;67471;44.918;8.614;2024-02-26T02:27:29;14.25;;;8.95;;
77055;SDS011;67471;44.918;8.614;2024-02-26T02:30:33;12.75;;;8.55;;
77055;SDS011;67471;44.918;8.614;2024-02-26T02:33:38;17.73;;;10.63;;
77055;SDS011;67471;44.918;8.614;2024-02-26T02:36:49;13.73;;;10.18;;
77055;SDS011;67471;44.918;8.614;2024-02-26T02:39:56;12.32;;;9.60;;
77055;SDS011;67471;44.918;8.614;2024-02-26T02:43:01;18.92;;;9.27;;
77055;SDS011;67471;44.918;8.614;2024-02-26T02:46:05;15.98;;;9.63;;
77055;SDS011;67471;44.918;8.614;2024-02-26T02:49:09;13.48;;;8.93;;
77055;SDS011;67471;44.918;8.614;2024-02-26T02:52:13;16.15;;;9.40;;
77055;SDS011;67471;44.918;8.614;2024-02-26T02:55:18;12.98;;;8.43;;
77055;SDS011;67471;44.918;8.614;2024-02-26T02:58:21;11.07;;;8.48;;
77055;SDS011;67471;44.918;8.614;2024-02-26T03:01:25;13.88;;;8.70;;
77055;SDS011;67471;44.918;8.614;2024-02-26T03:04:29;14.65;;;8.90;;
77055;SDS011;67471;44.918;8.614;2024-02-26T03:07:33;12.07;;;8.32;;
77055;SDS011;67471;44.918;8.614;2024-02-26T03:10:36;12.60;;;8.60;;
77055;SDS011;67471;44.918;8.614;2024-02-26T03:13:41;11.27;;;8.43;;
77055;SDS011;67471;44.918;8.614;2024-02-26T03:16:45;12.38;;;8.02;;
77055;SDS011;67471;44.918;8.614;2024-02-26T03:19:49;12.70;;;8.43;;
77055;SDS011;67471;44.918;8.614;2024-02-26T03:22:57;12.18;;;8.63;;
77055;SDS011;67471;44.918;8.614;2024-02-26T03:26:01;11.05;;;7.90;;
77055;SDS011;67471;44.918;8.614;2024-02-26T03:29:05;11.73;;;8.32;;
77055;SDS011;67471;44.918;8.614;2024-02-26T03:32:09;13.68;;;7.97;;
77055;SDS011;67471;44.918;8.614;2024-02-26T03:35:12;10.80;;;8.00;;
77055;SDS011;67471;44.918;8.614;2024-02-26T03:38:16;13.20;;;8.68;;
77055;SDS011;67471;44.918;8.614;2024-02-26T03:41:20;9.00;;;7.15;;
77055;SDS011;67471;44.918;8.614;2024-02-26T03:44:24;9.25;;;6.78;;
77055;SDS011;67471;44.918;8.614;2024-02-26T03:47:27;10.02;;;6.93;;
77055;SDS011;67471;44.918;8.614;2024-02-26T03:50:31;10.13;;;7.10;;
77055;SDS011;67471;44.918;8.614;2024-02-26T03:53:36;8.95;;;6.38;;
77055;SDS011;67471;44.918;8.614;2024-02-26T03:56:40;12.73;;;7.97;;
77055;SDS011;67471;44.918;8.614;2024-02-26T03:59:44;11.90;;;7.78;;
77055;SDS011;67471;44.918;8.614;2024-02-26T04:02:47;11.27;;;8.00;;
77055;SDS011;67471;44.918;8.614;2024-02-26T04:05:51;10.70;;;7.57;;
77055;SDS011;67471;44.918;8.614;2024-02-26T04:08:55;8.95;;;7.13;;
77055;SDS011;67471;44.918;8.614;2024-02-26T04:11:59;14.68;;;8.30;;
77055;SDS011;67471;44.918;8.614;2024-02-26T04:15:02;12.75;;;8.15;;
77055;SDS011;67471;44.918;8.614;2024-02-26T04:18:07;10.43;;;6.82;;
77055;SDS011;67471;44.918;8.614;2024-02-26T04:21:10;10.95;;;7.63;;
77055;SDS011;67471;44.918;8.614;2024-02-26T04:24:14;11.20;;;7.65;;
77055;SDS011;67471;44.918;8.614;2024-02-26T04:27:18;11.60;;;7.13;;
77055;SDS011;67471;44.918;8.614;2024-02-26T04:30:22;13.15;;;7.93;;
77055;SDS011;67471;44.918;8.614;2024-02-26T04:33:26;10.70;;;7.43;;
77055;SDS011;67471;44.918;8.614;2024-02-26T04:36:30;15.80;;;7.63;;
77055;SDS011;67471;44.918;8.614;2024-02-26T04:39:33;12.98;;;7.57;;
77055;SDS011;67471;44.918;8.614;2024-02-26T04:42:37;11.68;;;7.93;;
77055;SDS011;67471;44.918;8.614;2024-02-26T04:45:41;11.90;;;8.20;;
77055;SDS011;67471;44.918;8.614;2024-02-26T04:48:45;13.55;;;7.57;;
77055;SDS011;67471;44.918;8.614;2024-02-26T04:51:50;11.88;;;7.70;;
77055;SDS011;67471;44.918;8.614;2024-02-26T04:54:53;11.23;;;8.40;;
77055;SDS011;67471;44.918;8.614;2024-02-26T04:57:57;11.02;;;7.82;;
77055;SDS011;67471;44.918;8.614;2024-02-26T05:01:01;8.93;;;7.65;;
77055;SDS011;67471;44.918;8.614;2024-02-26T05:04:06;10.38;;;7.60;;
77055;SDS011;67471;44.918;8.614;2024-02-26T05:07:10;11.32;;;7.63;;
77055;SDS011;67471;44.918;8.614;2024-02-26T05:10:15;10.70;;;7.68;;
77055;SDS011;67471;44.918;8.614;2024-02-26T05:13:18;11.20;;;8.13;;
77055;SDS011;67471;44.918;8.614;2024-02-26T05:16:23;11.63;;;7.28;;
77055;SDS011;67471;44.918;8.614;2024-02-26T05:19:27;10.18;;;7.43;;
77055;SDS011;67471;44.918;8.614;2024-02-26T05:22:31;12.95;;;7.63;;
77055;SDS011;67471;44.918;8.614;2024-02-26T05:25:35;11.13;;;8.10;;
77055;SDS011;67471;44.918;8.614;2024-02-26T05:28:39;10.82;;;8.05;;
77055;SDS011;67471;44.918;8.614;2024-02-26T05:31:43;11.98;;;8.23;;
77055;SDS011;67471;44.918;8.614;2024-02-26T05:34:47;10.68;;;7.50;;
77055;SDS011;67471;44.918;8.614;2024-02-26T05:37:50;10.38;;;7.97;;
77055;SDS011;67471;44.918;8.614;2024-02-26T05:40:54;11.43;;;8.85;;
77055;SDS011;67471;44.918;8.614;2024-02-26T05:43:58;12.52;;;8.82;;
77055;SDS011;67471;44.918;8.614;2024-02-26T05:47:02;11.50;;;8.60;;
77055;SDS011;67471;44.918;8.614;2024-02-26T05:50:05;13.82;;;10.32;;
77055;SDS011;67471;44.918;8.614;2024-02-26T05:53:10;18.35;;;9.75;;
77055;SDS011;67471;44.918;8.614;2024-02-26T05:56:13;14.63;;;10.80;;
77055;SDS011;67471;44.918;8.614;2024-02-26T05:59:17;13.38;;;10.80;;
77055;SDS011;67471;44.918;8.614;2024-02-26T06:02:21;17.65;;;11.27;;
77055;SDS011;67471;44.918;8.614;2024-02-26T06:05:25;14.70;;;11.07;;
77055;SDS011;67471;44.918;8.614;2024-02-26T06:08:29;17.35;;;12.45;;
77055;SDS011;67471;44.918;8.614;2024-02-26T06:11:34;16.02;;;11.32;;
77055;SDS011;67471;44.918;8.614;2024-02-26T06:14:38;16.48;;;11.70;;
77055;SDS011;67471;44.918;8.614;2024-02-26T06:17:41;18.00;;;13.00;;
77055;SDS011;67471;44.918;8.614;2024-02-26T06:20:45;13.88;;;10.68;;
77055;SDS011;67471;44.918;8.614;2024-02-26T06:23:49;17.42;;;11.45;;
77055;SDS011;67471;44.918;8.614;2024-02-26T06:26:54;13.50;;;10.32;;
77055;SDS011;67471;44.918;8.614;2024-02-26T06:29:57;12.98;;;9.48;;
77055;SDS011;67471;44.918;8.614;2024-02-26T06:33:01;12.32;;;9.13;;
77055;SDS011;67471;44.918;8.614;2024-02-26T06:36:06;11.23;;;8.98;;
77055;SDS011;67471;44.918;8.614;2024-02-26T06:39:11;11.10;;;8.32;;
77055;SDS011;67471;44.918;8.614;2024-02-26T06:42:16;11.80;;;8.60;;
77055;SDS011;67471;44.918;8.614;2024-02-26T06:45:20;11.95;;;9.18;;
77055;SDS011;67471;44.918;8.614;2024-02-26T06:48:24;10.00;;;8.23;;
77055;SDS011;67471;44.918;8.614;2024-02-26T06:51:28;11.40;;;9.05;;
77055;SDS011;67471;44.918;8.614;2024-02-26T06:54:32;11.73;;;9.30;;
77055;SDS011;67471;44.918;8.614;2024-02-26T06:57:35;12.00;;;9.50;;
77055;SDS011;67471;44.918;8.614;2024-02-26T07:00:39;17.08;;;10.50;;
77055;SDS011;67471;44.918;8.614;2024-02-26T07:03:43;12.52;;;9.85;;
77055;SDS011;67471;44.918;8.614;2024-02-26T07:06:47;21.05;;;11.50;;
77055;SDS011;67471;44.918;8.614;2024-02-26T07:09:50;13.60;;;11.05;;
77055;SDS011;67471;44.918;8.614;2024-02-26T07:12:55;17.08;;;11.48;;
77055;SDS011;67471;44.918;8.614;2024-02-26T07:15:58;15.57;;;12.35;;
77055;SDS011;67471;44.918;8.614;2024-02-26T07:19:03;19.52;;;13.38;;
77055;SDS011;67471;44.918;8.614;2024-02-26T07:22:07;17.75;;;13.63;;
77055;SDS011;67471;44.918;8.614;2024-02-26T07:25:11;18.05;;;13.32;;
77055;SDS011;67471;44.918;8.614;2024-02-26T07:28:16;18.80;;;13.23;;
77055;SDS011;67471;44.918;8.614;2024-02-26T07:31:20;18.20;;;13.57;;
77055;SDS011;67471;44.918;8.614;2024-02-26T07:34:24;18.25;;;13.10;;
77055;SDS011;67471;44.918;8.614;2024-02-26T07:37:32;16.70;;;11.80;;
77055;SDS011;67471;44.918;8.614;2024-02-26T07:40:35;16.42;;;11.98;;
77055;SDS011;67471;44.918;8.614;2024-02-26T07:43:39;17.92;;;11.52;;
77055;SDS011;67471;44.918;8.614;2024-02-26T07:46:44;15.30;;;11.50;;
77055;SDS011;67471;44.918;8.614;2024-02-26T07:49:48;13.00;;;9.98;;
77055;SDS011;67471;44.918;8.614;2024-02-26T07:52:52;14.77;;;9.75;;
77055;SDS011;67471;44.918;8.614;2024-02-26T07:55:56;12.80;;;9.63;;
77055;SDS011;67471;44.918;8.614;2024-02-26T07:59:00;13.63;;;8.68;;
77055;SDS011;67471;44.918;8.614;2024-02-26T08:02:04;13.98;;;8.02;;
77055;SDS011;67471;44.918;8.614;2024-02-26T08:05:09;10.38;;;7.68;;
77055;SDS011;67471;44.918;8.614;2024-02-26T08:08:12;10.15;;;7.25;;
77055;SDS011;67471;44.918;8.614;2024-02-26T08:11:16;9.63;;;6.95;;
77055;SDS011;67471;44.918;8.614;2024-02-26T08:14:20;12.52;;;7.10;;
77055;SDS011;67471;44.918;8.614;2024-02-26T08:17:24;10.20;;;5.38;;
77055;SDS011;67471;44.918;8.614;2024-02-26T08:20:28;6.00;;;4.40;;
77055;SDS011;67471;44.918;8.614;2024-02-26T08:23:32;9.43;;;5.30;;
77055;SDS011;67471;44.918;8.614;2024-02-26T08:26:36;5.78;;;3.50;;
77055;SDS011;67471;44.918;8.614;2024-02-26T08:29:39;4.18;;;2.83;;
77055;SDS011;67471;44.918;8.614;2024-02-26T08:32:43;7.00;;;3.50;;
77055;SDS011;67471;44.918;8.614;2024-02-26T08:35:48;8.40;;;4.38;;
77055;SDS011;67471;44.918;8.614;2024-02-26T08:38:52;6.53;;;4.60;;
77055;SDS011;67471;44.918;8.614;2024-02-26T08:41:55;8.38;;;5.05;;
77055;SDS011;67471;44.918;8.614;2024-02-26T08:44:59;9.68;;;6.50;;
77055;SDS011;67471;44.918;8.614;2024-02-26T08:48:05;9.80;;;6.78;;
77055;SDS011;67471;44.918;8.614;2024-02-26T08:51:09;11.18;;;7.78;;
77055;SDS011;67471;44.918;8.614;2024-02-26T08:54:13;12.13;;;8.25;;
77055;SDS011;67471;44.918;8.614;2024-02-26T08:57:16;13.25;;;9.27;;
77055;SDS011;67471;44.918;8.614;2024-02-26T09:00:20;13.45;;;9.38;;
77055;SDS011;67471;44.918;8.614;2024-02-26T09:03:24;13.15;;;9.35;;
77055;SDS011;67471;44.918;8.614;2024-02-26T09:06:29;14.32;;;9.85;;
77055;SDS011;67471;44.918;8.614;2024-02-26T09:09:33;16.17;;;10.70;;
77055;SDS011;67471;44.918;8.614;2024-02-26T09:12:37;15.20;;;10.63;;
77055;SDS011;67471;44.918;8.614;2024-02-26T09:15:42;15.25;;;10.15;;
77055;SDS011;67471;44.918;8.614;2024-02-26T09:18:46;15.27;;;9.70;;
77055;SDS011;67471;44.918;8.614;2024-02-26T09:21:50;13.48;;;9.55;;
77055;SDS011;67471;44.918;8.614;2024-02-26T09:24:54;17.38;;;10.65;;
77055;SDS011;67471;44.918;8.614;2024-02-26T09:27:58;18.20;;;10.63;;
77055;SDS011;67471;44.918;8.614;2024-02-26T09:31:01;16.85;;;11.15;;
77055;SDS011;67471;44.918;8.614;2024-02-26T09:34:05;16.02;;;11.25;;
77055;SDS011;67471;44.918;8.614;2024-02-26T09:37:09;18.88;;;12.30;;
77055;SDS011;67471;44.918;8.614;2024-02-26T09:40:13;19.10;;;13.55;;
77055;SDS011;67471;44.918;8.614;2024-02-26T09:43:17;20.40;;;13.82;;
77055;SDS011;67471;44.918;8.614;2024-02-26T09:46:27;19.85;;;14.18;;
77055;SDS011;67471;44.918;8.614;2024-02-26T09:49:31;18.88;;;14.07;;
77055;SDS011;67471;44.918;8.614;2024-02-26T09:52:36;21.70;;;12.68;;
77055;SDS011;67471;44.918;8.614;2024-02-26T09:55:41;18.80;;;13.43;;
77055;SDS011;67471;44.918;8.614;2024-02-26T09:58:45;19.77;;;12.65;;
77055;SDS011;67471;44.918;8.614;2024-02-26T10:01:51;17.35;;;13.23;;
77055;SDS011;67471;44.918;8.614;2024-02-26T10:04:57;18.92;;;12.50;;
77055;SDS011;67471;44.918;8.614;2024-02-26T10:08:05;18.17;;;13.05;;
77055;SDS011;67471;44.918;8.614;2024-02-26T10:11:10;17.00;;;12.13;;
77055;SDS011;67471;44.918;8.614;2024-02-26T10:14:14;21.25;;;12.77;;
77055;SDS011;67471;44.918;8.614;2024-02-26T10:17:19;20.42;;;13.15;;
77055;SDS011;67471;44.918;8.614;2024-02-26T10:20:23;17.00;;;11.35;;
77055;SDS011;67471;44.918;8.614;2024-02-26T10:23:29;16.63;;;11.52;;
77055;SDS011;67471;44.918;8.614;2024-02-26T10:26:33;15.23;;;11.48;;
77055;SDS011;67471;44.918;8.614;2024-02-26T10:29:37;19.67;;;12.32;;
77055;SDS011;67471;44.918;8.614;2024-02-26T10:32:40;16.35;;;11.20;;
77055;SDS011;67471;44.918;8.614;2024-02-26T10:35:48;16.70;;;11.40;;
77055;SDS011;67471;44.918;8.614;2024-02-26T10:38:51;17.25;;;10.90;;
77055;SDS011;67471;44.918;8.614;2024-02-26T10:41:56;15.02;;;11.30;;
77055;SDS011;67471;44.918;8.614;2024-02-26T10:45:00;15.55;;;10.98;;
77055;SDS011;67471;44.918;8.614;2024-02-26T10:48:09;16.33;;;11.48;;
77055;SDS011;67471;44.918;8.614;2024-02-26T10:51:13;14.50;;;10.27;;
77055;SDS011;67471;44.918;8.614;2024-02-26T10:54:17;16.52;;;11.90;;
77055;SDS011;67471;44.918;8.614;2024-02-26T10:57:22;15.32;;;11.45;;
77055;SDS011;67471;44.918;8.614;2024-02-26T11:00:27;15.15;;;11.40;;
77055;SDS011;67471;44.918;8.614;2024-02-26T11:03:32;16.70;;;12.20;;
77055;SDS011;67471;44.918;8.614;2024-02-26T11:06:38;25.45;;;12.63;;
77055;SDS011;67471;44.918;8.614;2024-02-26T11:09:42;16.77;;;12.30;;
77055;SDS011;67471;44.918;8.614;2024-02-26T11:12:49;18.58;;;13.32;;
77055;SDS011;67471;44.918;8.614;2024-02-26T11:15:53;17.98;;;12.07;;
77055;SDS011;67471;44.918;8.614;2024-02-26T11:18:57;16.38;;;11.48;;
77055;SDS011;67471;44.918;8.614;2024-02-26T11:22:03;16.48;;;12.38;;
77055;SDS011;67471;44.918;8.614;2024-02-26T11:25:07;24.63;;;16.17;;
77055;SDS011;67471;44.918;8.614;2024-02-26T11:28:12;19.15;;;13.07;;
77055;SDS011;67471;44.918;8.614;2024-02-26T11:31:18;18.05;;;12.93;;
77055;SDS011;67471;44.918;8.614;2024-02-26T11:34:29;21.05;;;13.77;;
77055;SDS011;67471;44.918;8.614;2024-02-26T11:37:33;18.90;;;12.23;;
77055;SDS011;67471;44.918;8.614;2024-02-26T11:40:38;19.67;;;11.63;;
77055;SDS011;67471;44.918;8.614;2024-02-26T11:43:58;15.23;;;11.20;;
77055;SDS011;67471;44.918;8.614;2024-02-26T11:47:13;16.30;;;10.88;;
77055;SDS011;67471;44.918;8.614;2024-02-26T11:50:38;18.25;;;11.05;;
77055;SDS011;67471;44.918;8.614;2024-02-26T11:53:46;15.95;;;10.85;;
77055;SDS011;67471;44.918;8.614;2024-02-26T11:56:53;15.02;;;9.73;;
77055;SDS011;67471;44.918;8.614;2024-02-26T12:00:10;15.82;;;10.07;;
77055;SDS011;67471;44.918;8.614;2024-02-26T12:03:20;12.52;;;8.75;;
77055;SDS011;67471;44.918;8.614;2024-02-26T12:06:23;14.10;;;9.30;;
77055;SDS011;67471;44.918;8.614;2024-02-26T12:09:36;13.55;;;8.32;;
77055;SDS011;67471;44.918;8.614;2024-02-26T12:12:41;14.73;;;7.35;;
77055;SDS011;67471;44.918;8.614;2024-02-26T12:16:03;11.30;;;8.00;;
77055;SDS011;67471;44.918;8.614;2024-02-26T12:19:08;9.52;;;6.78;;
77055;SDS011;67471;44.918;8.614;2024-02-26T12:22:13;11.68;;;6.57;;
77055;SDS011;67471;44.918;8.614;2024-02-26T12:25:19;8.13;;;6.00;;
77055;SDS011;67471;44.918;8.614;2024-02-26T12:28:27;8.68;;;5.57;;
77055;SDS011;67471;44.918;8.614;2024-02-26T12:31:32;11.00;;;7.75;;
77055;SDS011;67471;44.918;8.614;2024-02-26T12:34:36;12.05;;;7.90;;
77055;SDS011;67471;44.918;8.614;2024-02-26T12:37:40;10.20;;;7.43;;
77055;SDS011;67471;44.918;8.614;2024-02-26T12:40:45;10.68;;;7.65;;
77055;SDS011;67471;44.918;8.614;2024-02-26T12:43:49;12.38;;;8.23;;
77055;SDS011;67471;44.918;8.614;2024-02-26T12:47:02;12.02;;;8.77;;
77055;SDS011;67471;44.918;8.614;2024-02-26T12:50:07;12.68;;;8.38;;
77055;SDS011;67471;44.918;8.614;2024-02-26T12:53:12;12.02;;;7.93;;
77055;SDS011;67471;44.918;8.614;2024-02-26T12:56:16;11.52;;;7.85;;
77055;SDS011;67471;44.918;8.614;2024-02-26T12:59:20;12.80;;;8.02;;
77055;SDS011;67471;44.918;8.614;2024-02-26T13:02:24;12.90;;;8.50;;
77055;SDS011;67471;44.918;8.614;2024-02-26T13:05:28;8.63;;;6.90;;
77055;SDS011;67471;44.918;8.614;2024-02-26T13:08:33;11.55;;;7.40;;
77055;SDS011;67471;44.918;8.614;2024-02-26T13:11:39;11.20;;;7.75;;
77055;SDS011;67471;44.918;8.614;2024-02-26T13:14:43;11.63;;;7.78;;
77055;SDS011;67471;44.918;8.614;2024-02-26T13:17:47;12.63;;;8.27;;
77055;SDS011;67471;44.918;8.614;2024-02-26T13:20:52;10.50;;;7.82;;
77055;SDS011;67471;44.918;8.614;2024-02-26T13:23:56;13.82;;;8.10;;
77055;SDS011;67471;44.918;8.614;2024-02-26T13:27:00;10.60;;;7.05;;
77055;SDS011;67471;44.918;8.614;2024-02-26T13:30:08;9.50;;;6.60;;
77055;SDS011;67471;44.918;8.614;2024-02-26T13:33:14;10.27;;;7.13;;
77055;SDS011;67471;44.918;8.614;2024-02-26T13:36:18;8.93;;;6.82;;
77055;SDS011;67471;44.918;8.614;2024-02-26T13:39:25;11.52;;;8.52;;
77055;SDS011;67471;44.918;8.614;2024-02-26T13:42:30;11.30;;;6.63;;
77055;SDS011;67471;44.918;8.614;2024-02-26T13:45:34;10.80;;;6.18;;
77055;SDS011;67471;44.918;8.614;2024-02-26T13:48:41;8.75;;;5.97;;
77055;SDS011;67471;44.918;8.614;2024-02-26T13:51:46;10.07;;;6.15;;
77055;SDS011;67471;44.918;8.614;2024-02-26T13:54:50;9.40;;;6.53;;
77055;SDS011;67471;44.918;8.614;2024-02-26T13:57:54;11.55;;;6.05;;
77055;SDS011;67471;44.918;8.614;2024-02-26T14:01:00;8.73;;;4.72;;
77055;SDS011;67471;44.918;8.614;2024-02-26T14:04:06;6.75;;;4.85;;
77055;SDS011;67471;44.918;8.614;2024-02-26T14:07:12;8.15;;;4.68;;
77055;SDS011;67471;44.918;8.614;2024-02-26T14:10:16;6.63;;;4.65;;
77055;SDS011;67471;44.918;8.614;2024-02-26T14:13:20;8.35;;;4.80;;
77055;SDS011;67471;44.918;8.614;2024-02-26T14:16:24;6.40;;;4.53;;
77055;SDS011;67471;44.918;8.614;2024-02-26T14:19:28;6.10;;;4.63;;
77055;SDS011;67471;44.918;8.614;2024-02-26T14:22:32;8.32;;;4.90;;
77055;SDS011;67471;44.918;8.614;2024-02-26T14:25:36;9.02;;;5.07;;
77055;SDS011;67471;44.918;8.614;2024-02-26T14:28:40;7.07;;;4.03;;
77055;SDS011;67471;44.918;8.614;2024-02-26T14:31:44;7.00;;;4.43;;
77055;SDS011;67471;44.918;8.614;2024-02-26T14:34:48;7.43;;;3.75;;
77055;SDS011;67471;44.918;8.614;2024-02-26T14:37:52;6.32;;;4.70;;
77055;SDS011;67471;44.918;8.614;2024-02-26T14:40:55;6.30;;;4.10;;
77055;SDS011;67471;44.918;8.614;2024-02-26T14:43:59;7.50;;;4.57;;
77055;SDS011;67471;44.918;8.614;2024-02-26T14:47:03;7.35;;;5.53;;
77055;SDS011;67471;44.918;8.614;2024-02-26T14:50:06;7.78;;;5.20;;
77055;SDS011;67471;44.918;8.614;2024-02-26T14:53:10;7.93;;;4.80;;
77055;SDS011;67471;44.918;8.614;2024-02-26T14:56:14;16.33;;;9.30;;
77055;SDS011;67471;44.918;8.614;2024-02-26T14:59:18;15.50;;;7.90;;
77055;SDS011;67471;44.918;8.614;2024-02-26T15:02:22;7.70;;;4.10;;
77055;SDS011;67471;44.918;8.614;2024-02-26T15:05:26;4.78;;;3.00;;
77055;SDS011;67471;44.918;8.614;2024-02-26T15:08:31;6.35;;;2.83;;
77055;SDS011;67471;44.918;8.614;2024-02-26T15:11:37;4.03;;;2.00;;
77055;SDS011;67471;44.918;8.614;2024-02-26T15:14:42;4.80;;;2.40;;
77055;SDS011;67471;44.918;8.614;2024-02-26T15:17:46;4.05;;;2.33;;
77055;SDS011;67471;44.918;8.614;2024-02-26T15:20:51;4.13;;;2.40;;
77055;SDS011;67471;44.918;8.614;2024-02-26T15:23:55;4.70;;;2.50;;
77055;SDS011;67471;44.918;8.614;2024-02-26T15:26:59;5.45;;;2.28;;
77055;SDS011;67471;44.918;8.614;2024-02-26T15:30:04;5.68;;;3.67;;
77055;SDS011;67471;44.918;8.614;2024-02-26T15:33:08;6.55;;;2.50;;
77055;SDS011;67471;44.918;8.614;2024-02-26T15:36:12;5.45;;;3.67;;
77055;SDS011;67471;44.918;8.614;2024-02-26T15:39:16;4.55;;;3.33;;
77055;SDS011;67471;44.918;8.614;2024-02-26T15:42:20;5.90;;;3.55;;
77055;SDS011;67471;44.918;8.614;2024-02-26T15:45:24;6.78;;;4.03;;
77055;SDS011;67471;44.918;8.614;2024-02-26T15:48:27;7.55;;;3.08;;
77055;SDS011;67471;44.918;8.614;2024-02-26T15:51:31;10.40;;;3.15;;
77055;SDS011;67471;44.918;8.614;2024-02-26T15:54:38;3.58;;;2.50;;
77055;SDS011;67471;44.918;8.614;2024-02-26T15:57:43;3.95;;;2.55;;
77055;SDS011;67471;44.918;8.614;2024-02-26T16:00:47;13.90;;;2.85;;
77055;SDS011;67471;44.918;8.614;2024-02-26T16:03:50;5.00;;;3.08;;
77055;SDS011;67471;44.918;8.614;2024-02-26T16:06:55;5.25;;;2.55;;
77055;SDS011;67471;44.918;8.614;2024-02-26T16:10:04;5.38;;;2.72;;
77055;SDS011;67471;44.918;8.614;2024-02-26T16:13:09;3.88;;;2.88;;
77055;SDS011;67471;44.918;8.614;2024-02-26T16:16:13;7.78;;;3.03;;
77055;SDS011;67471;44.918;8.614;2024-02-26T16:19:21;4.68;;;2.80;;
77055;SDS011;67471;44.918;8.614;2024-02-26T16:22:26;5.65;;;2.65;;
77055;SDS011;67471;44.918;8.614;2024-02-26T16:25:31;2.90;;;2.10;;
77055;SDS011;67471;44.918;8.614;2024-02-26T16:28:35;4.55;;;2.80;;
77055;SDS011;67471;44.918;8.614;2024-02-26T16:31:39;3.78;;;2.47;;
77055;SDS011;67471;44.918;8.614;2024-02-26T16:34:42;3.03;;;2.22;;
77055;SDS011;67471;44.918;8.614;2024-02-26T16:37:46;3.80;;;2.45;;
77055;SDS011;67471;44.918;8.614;2024-02-26T16:40:50;4.35;;;2.25;;
77055;SDS011;67471;44.918;8.614;2024-02-26T16:43:54;3.47;;;2.58;;
77055;SDS011;67471;44.918;8.614;2024-02-26T16:46:58;3.72;;;2.22;;
77055;SDS011;67471;44.918;8.614;2024-02-26T16:50:02;3.45;;;2.28;;
77055;SDS011;67471;44.918;8.614;2024-02-26T16:53:09;5.20;;;3.03;;
77055;SDS011;67471;44.918;8.614;2024-02-26T16:56:13;3.72;;;2.60;;
77055;SDS011;67471;44.918;8.614;2024-02-26T16:59:17;5.65;;;2.78;;
77055;SDS011;67471;44.918;8.614;2024-02-26T17:02:20;7.03;;;3.40;;
77055;SDS011;67471;44.918;8.614;2024-02-26T17:05:24;4.07;;;2.80;;
77055;SDS011;67471;44.918;8.614;2024-02-26T17:08:28;3.67;;;2.30;;
77055;SDS011;67471;44.918;8.614;2024-02-26T17:11:35;5.88;;;2.70;;
77055;SDS011;67471;44.918;8.614;2024-02-26T17:14:41;3.45;;;2.30;;
77055;SDS011;67471;44.918;8.614;2024-02-26T17:17:45;3.80;;;2.47;;
77055;SDS011;67471;44.918;8.614;2024-02-26T17:20:48;5.07;;;2.78;;
77055;SDS011;67471;44.918;8.614;2024-02-26T17:23:52;3.25;;;2.45;;
77055;SDS011;67471;44.918;8.614;2024-02-26T17:26:56;5.03;;;2.58;;
77055;SDS011;67471;44.918;8.614;2024-02-26T17:30:00;3.28;;;2.10;;
77055;SDS011;67471;44.918;8.614;2024-02-26T17:33:04;4.18;;;2.90;;
77055;SDS011;67471;44.918;8.614;2024-02-26T17:36:08;3.58;;;2.40;;
77055;SDS011;67471;44.918;8.614;2024-02-26T17:39:12;3.65;;;2.33;;
77055;SDS011;67471;44.918;8.614;2024-02-26T17:42:15;3.70;;;2.40;;
77055;SDS011;67471;44.918;8.614;2024-02-26T17:45:19;3.70;;;2.30;;
77055;SDS011;67471;44.918;8.614;2024-02-26T17:48:25;3.90;;;2.70;;
77055;SDS011;67471;44.918;8.614;2024-02-26T17:51:29;3.00;;;2.30;;
77055;SDS011;67471;44.918;8.614;2024-02-26T17:54:34;4.05;;;2.28;;
77055;SDS011;67471;44.918;8.614;2024-02-26T17:57:37;7.22;;;4.00;;
77055;SDS011;67471;44.918;8.614;2024-02-26T18:00:41;6.93;;;4.32;;
77055;SDS011;67471;44.918;8.614;2024-02-26T18:03:45;3.55;;;2.60;;
77055;SDS011;67471;44.918;8.614;2024-02-26T18:06:50;3.40;;;2.20;;
77055;SDS011;67471;44.918;8.614;2024-02-26T18:09:54;4.50;;;2.40;;
77055;SDS011;67471;44.918;8.614;2024-02-26T18:12:58;4.22;;;2.65;;
77055;SDS011;67471;44.918;8.614;2024-02-26T18:16:02;2.85;;;2.17;;
77055;SDS011;67471;44.918;8.614;2024-02-26T18:19:07;4.28;;;2.47;;